sensor_id;sensor_type;location;lat;lon;timestamp;P1;durP1;ratioP1;P2;durP2;ratioP2
74632;SDS011;63139;52.018;8.552;2023-08-08T00:00:19;8.65;;;4.40;;
74632;SDS011;63139;52.018;8.552;2023-08-08T00:02:47;8.73;;;4.45;;
74632;SDS011;63139;52.018;8.552;2023-08-08T00:05:15;7.65;;;4.10;;
74632;SDS011;63139;52.018;8.552;2023-08-08T00:07:43;6.93;;;4.65;;
74632;SDS011;63139;52.018;8.552;2023-08-08T00:10:12;10.05;;;5.03;;
74632;SDS011;63139;52.018;8.552;2023-08-08T00:12:40;12.48;;;5.25;;
74632;SDS011;63139;52.018;8.552;2023-08-08T00:15:08;13.05;;;5.57;;
74632;SDS011;63139;52.018;8.552;2023-08-08T00:17:36;7.43;;;4.72;;
74632;SDS011;63139;52.018;8.552;2023-08-08T00:20:04;14.57;;;6.25;;
74632;SDS011;63139;52.018;8.552;2023-08-08T00:22:33;10.45;;;6.07;;
74632;SDS011;63139;52.018;8.552;2023-08-08T00:25:01;12.55;;;5.50;;
74632;SDS011;63139;52.018;8.552;2023-08-08T00:27:30;10.93;;;5.50;;
74632;SDS011;63139;52.018;8.552;2023-08-08T00:29:59;10.43;;;5.75;;
74632;SDS011;63139;52.018;8.552;2023-08-08T00:32:27;13.65;;;6.65;;
74632;SDS011;63139;52.018;8.552;2023-08-08T00:34:55;7.50;;;4.60;;
74632;SDS011;63139;52.018;8.552;2023-08-08T00:37:22;10.98;;;4.68;;
74632;SDS011;63139;52.018;8.552;2023-08-08T00:39:50;10.57;;;5.00;;
74632;SDS011;63139;52.018;8.552;2023-08-08T00:42:18;8.32;;;4.90;;
74632;SDS011;63139;52.018;8.552;2023-08-08T00:44:47;8.02;;;5.00;;
74632;SDS011;63139;52.018;8.552;2023-08-08T00:47:15;9.60;;;5.05;;
74632;SDS011;63139;52.018;8.552;2023-08-08T00:49:43;8.50;;;4.70;;
74632;SDS011;63139;52.018;8.552;2023-08-08T00:52:13;9.68;;;4.38;;
74632;SDS011;63139;52.018;8.552;2023-08-08T00:54:40;7.47;;;4.40;;
74632;SDS011;63139;52.018;8.552;2023-08-08T00:57:08;8.27;;;4.18;;
74632;SDS011;63139;52.018;8.552;2023-08-08T00:59:36;7.55;;;3.90;;
74632;SDS011;63139;52.018;8.552;2023-08-08T01:02:05;8.27;;;4.45;;
74632;SDS011;63139;52.018;8.552;2023-08-08T01:04:35;7.25;;;4.70;;
74632;SDS011;63139;52.018;8.552;2023-08-08T01:07:05;7.72;;;4.35;;
74632;SDS011;63139;52.018;8.552;2023-08-08T01:09:36;7.28;;;3.70;;
74632;SDS011;63139;52.018;8.552;2023-08-08T01:12:08;6.22;;;3.97;;
74632;SDS011;63139;52.018;8.552;2023-08-08T01:14:40;5.07;;;3.75;;
74632;SDS011;63139;52.018;8.552;2023-08-08T01:17:13;7.18;;;3.80;;
74632;SDS011;63139;52.018;8.552;2023-08-08T01:19:41;8.40;;;4.78;;
74632;SDS011;63139;52.018;8.552;2023-08-08T01:22:14;6.53;;;4.32;;
74632;SDS011;63139;52.018;8.552;2023-08-08T01:24:51;9.75;;;4.60;;
74632;SDS011;63139;52.018;8.552;2023-08-08T01:27:21;5.80;;;4.13;;
74632;SDS011;63139;52.018;8.552;2023-08-08T01:29:49;6.72;;;4.05;;
74632;SDS011;63139;52.018;8.552;2023-08-08T01:32:17;9.90;;;4.70;;
74632;SDS011;63139;52.018;8.552;2023-08-08T01:34:45;8.27;;;4.28;;
74632;SDS011;63139;52.018;8.552;2023-08-08T01:37:13;8.90;;;4.25;;
74632;SDS011;63139;52.018;8.552;2023-08-08T01:39:45;7.00;;;3.80;;
74632;SDS011;63139;52.018;8.552;2023-08-08T01:42:15;7.57;;;4.22;;
74632;SDS011;63139;52.018;8.552;2023-08-08T01:44:45;6.03;;;3.78;;
74632;SDS011;63139;52.018;8.552;2023-08-08T01:47:14;7.28;;;4.07;;
74632;SDS011;63139;52.018;8.552;2023-08-08T01:49:41;6.55;;;4.13;;
74632;SDS011;63139;52.018;8.552;2023-08-08T01:52:09;6.82;;;3.65;;
74632;SDS011;63139;52.018;8.552;2023-08-08T01:54:37;9.40;;;3.67;;
74632;SDS011;63139;52.018;8.552;2023-08-08T01:57:05;6.40;;;3.50;;
74632;SDS011;63139;52.018;8.552;2023-08-08T01:59:34;4.55;;;3.40;;
74632;SDS011;63139;52.018;8.552;2023-08-08T02:02:02;6.63;;;3.60;;
74632;SDS011;63139;52.018;8.552;2023-08-08T02:04:31;3.20;;;2.90;;
74632;SDS011;63139;52.018;8.552;2023-08-08T02:06:59;3.92;;;3.47;;
74632;SDS011;63139;52.018;8.552;2023-08-08T02:09:27;3.78;;;2.88;;
74632;SDS011;63139;52.018;8.552;2023-08-08T02:11:54;4.78;;;2.90;;
74632;SDS011;63139;52.018;8.552;2023-08-08T02:14:22;4.15;;;2.90;;
74632;SDS011;63139;52.018;8.552;2023-08-08T02:16:51;5.72;;;3.30;;
74632;SDS011;63139;52.018;8.552;2023-08-08T02:19:19;4.20;;;3.10;;
74632;SDS011;63139;52.018;8.552;2023-08-08T02:21:47;4.97;;;2.80;;
74632;SDS011;63139;52.018;8.552;2023-08-08T02:24:17;7.07;;;3.10;;
74632;SDS011;63139;52.018;8.552;2023-08-08T02:26:45;3.22;;;2.42;;
74632;SDS011;63139;52.018;8.552;2023-08-08T02:29:13;3.35;;;2.72;;
74632;SDS011;63139;52.018;8.552;2023-08-08T02:31:41;4.55;;;2.97;;
74632;SDS011;63139;52.018;8.552;2023-08-08T02:34:10;5.05;;;3.25;;
74632;SDS011;63139;52.018;8.552;2023-08-08T02:36:37;3.75;;;2.90;;
74632;SDS011;63139;52.018;8.552;2023-08-08T02:39:06;3.30;;;2.60;;
74632;SDS011;63139;52.018;8.552;2023-08-08T02:41:33;2.70;;;2.38;;
74632;SDS011;63139;52.018;8.552;2023-08-08T02:44:01;3.35;;;2.50;;
74632;SDS011;63139;52.018;8.552;2023-08-08T02:46:29;3.10;;;2.55;;
74632;SDS011;63139;52.018;8.552;2023-08-08T02:48:57;4.40;;;2.85;;
74632;SDS011;63139;52.018;8.552;2023-08-08T02:51:27;3.03;;;2.20;;
74632;SDS011;63139;52.018;8.552;2023-08-08T02:53:55;3.95;;;2.42;;
74632;SDS011;63139;52.018;8.552;2023-08-08T02:56:23;4.65;;;2.60;;
74632;SDS011;63139;52.018;8.552;2023-08-08T02:58:52;4.53;;;2.80;;
74632;SDS011;63139;52.018;8.552;2023-08-08T03:01:20;4.53;;;2.70;;
74632;SDS011;63139;52.018;8.552;2023-08-08T03:03:48;3.17;;;2.40;;
74632;SDS011;63139;52.018;8.552;2023-08-08T03:06:18;4.40;;;2.55;;
74632;SDS011;63139;52.018;8.552;2023-08-08T03:08:47;3.92;;;2.35;;
74632;SDS011;63139;52.018;8.552;2023-08-08T03:11:15;2.72;;;2.13;;
74632;SDS011;63139;52.018;8.552;2023-08-08T03:13:44;11.18;;;3.50;;
74632;SDS011;63139;52.018;8.552;2023-08-08T03:16:12;4.60;;;2.50;;
74632;SDS011;63139;52.018;8.552;2023-08-08T03:18:40;2.63;;;2.40;;
74632;SDS011;63139;52.018;8.552;2023-08-08T03:21:08;4.25;;;2.50;;
74632;SDS011;63139;52.018;8.552;2023-08-08T03:23:36;2.80;;;2.50;;
74632;SDS011;63139;52.018;8.552;2023-08-08T03:26:05;5.22;;;2.88;;
74632;SDS011;63139;52.018;8.552;2023-08-08T03:28:34;4.40;;;2.90;;
74632;SDS011;63139;52.018;8.552;2023-08-08T03:31:02;5.75;;;2.50;;
74632;SDS011;63139;52.018;8.552;2023-08-08T03:33:31;6.03;;;3.15;;
74632;SDS011;63139;52.018;8.552;2023-08-08T03:36:01;6.80;;;3.33;;
74632;SDS011;63139;52.018;8.552;2023-08-08T03:38:29;7.35;;;3.30;;
74632;SDS011;63139;52.018;8.552;2023-08-08T03:40:57;4.25;;;3.67;;
74632;SDS011;63139;52.018;8.552;2023-08-08T03:43:27;4.28;;;2.90;;
74632;SDS011;63139;52.018;8.552;2023-08-08T03:45:55;4.20;;;3.40;;
74632;SDS011;63139;52.018;8.552;2023-08-08T03:48:23;7.18;;;3.72;;
74632;SDS011;63139;52.018;8.552;2023-08-08T03:50:50;6.53;;;3.90;;
74632;SDS011;63139;52.018;8.552;2023-08-08T03:53:18;6.35;;;4.40;;
74632;SDS011;63139;52.018;8.552;2023-08-08T03:55:46;8.73;;;4.40;;
74632;SDS011;63139;52.018;8.552;2023-08-08T03:58:15;6.13;;;4.30;;
74632;SDS011;63139;52.018;8.552;2023-08-08T04:00:44;6.10;;;4.15;;
74632;SDS011;63139;52.018;8.552;2023-08-08T04:03:13;5.75;;;3.90;;
74632;SDS011;63139;52.018;8.552;2023-08-08T04:05:43;6.22;;;5.18;;
74632;SDS011;63139;52.018;8.552;2023-08-08T04:08:12;6.63;;;4.72;;
74632;SDS011;63139;52.018;8.552;2023-08-08T04:10:40;9.30;;;6.00;;
74632;SDS011;63139;52.018;8.552;2023-08-08T04:13:09;7.78;;;4.70;;
74632;SDS011;63139;52.018;8.552;2023-08-08T04:15:37;9.50;;;5.07;;
74632;SDS011;63139;52.018;8.552;2023-08-08T04:18:07;7.60;;;5.75;;
74632;SDS011;63139;52.018;8.552;2023-08-08T04:20:34;8.02;;;5.18;;
74632;SDS011;63139;52.018;8.552;2023-08-08T04:23:02;8.35;;;5.18;;
74632;SDS011;63139;52.018;8.552;2023-08-08T04:25:30;7.70;;;5.63;;
74632;SDS011;63139;52.018;8.552;2023-08-08T04:27:58;7.50;;;5.55;;
74632;SDS011;63139;52.018;8.552;2023-08-08T04:30:26;7.30;;;4.82;;
74632;SDS011;63139;52.018;8.552;2023-08-08T04:32:53;9.40;;;5.50;;
74632;SDS011;63139;52.018;8.552;2023-08-08T04:35:22;10.70;;;5.78;;
74632;SDS011;63139;52.018;8.552;2023-08-08T04:37:50;7.47;;;5.35;;
74632;SDS011;63139;52.018;8.552;2023-08-08T04:40:18;13.20;;;5.03;;
74632;SDS011;63139;52.018;8.552;2023-08-08T04:42:46;8.63;;;5.40;;
74632;SDS011;63139;52.018;8.552;2023-08-08T04:45:13;9.82;;;5.90;;
74632;SDS011;63139;52.018;8.552;2023-08-08T04:47:41;11.85;;;6.68;;
74632;SDS011;63139;52.018;8.552;2023-08-08T04:50:09;6.60;;;5.50;;
74632;SDS011;63139;52.018;8.552;2023-08-08T04:52:38;9.02;;;5.68;;
74632;SDS011;63139;52.018;8.552;2023-08-08T04:55:06;8.25;;;5.68;;
74632;SDS011;63139;52.018;8.552;2023-08-08T04:57:34;9.38;;;5.30;;
74632;SDS011;63139;52.018;8.552;2023-08-08T05:00:02;10.63;;;5.32;;
74632;SDS011;63139;52.018;8.552;2023-08-08T05:02:33;8.73;;;5.70;;
74632;SDS011;63139;52.018;8.552;2023-08-08T05:05:01;10.90;;;5.88;;
74632;SDS011;63139;52.018;8.552;2023-08-08T05:07:29;11.70;;;5.60;;
74632;SDS011;63139;52.018;8.552;2023-08-08T05:09:58;9.45;;;4.85;;
74632;SDS011;63139;52.018;8.552;2023-08-08T05:12:26;10.13;;;5.40;;
74632;SDS011;63139;52.018;8.552;2023-08-08T05:14:54;12.40;;;6.10;;
74632;SDS011;63139;52.018;8.552;2023-08-08T05:17:21;9.70;;;6.28;;
74632;SDS011;63139;52.018;8.552;2023-08-08T05:19:49;9.73;;;5.28;;
74632;SDS011;63139;52.018;8.552;2023-08-08T05:22:17;10.45;;;5.43;;
74632;SDS011;63139;52.018;8.552;2023-08-08T05:24:44;7.53;;;4.95;;
74632;SDS011;63139;52.018;8.552;2023-08-08T05:27:14;9.98;;;5.63;;
74632;SDS011;63139;52.018;8.552;2023-08-08T05:29:41;8.18;;;5.10;;
74632;SDS011;63139;52.018;8.552;2023-08-08T05:32:09;7.22;;;4.60;;
74632;SDS011;63139;52.018;8.552;2023-08-08T05:34:37;10.82;;;5.00;;
74632;SDS011;63139;52.018;8.552;2023-08-08T05:37:04;7.90;;;5.07;;
74632;SDS011;63139;52.018;8.552;2023-08-08T05:39:43;8.38;;;4.97;;
74632;SDS011;63139;52.018;8.552;2023-08-08T05:42:10;10.27;;;4.93;;
74632;SDS011;63139;52.018;8.552;2023-08-08T05:44:40;8.57;;;5.05;;
74632;SDS011;63139;52.018;8.552;2023-08-08T05:47:08;9.25;;;5.43;;
74632;SDS011;63139;52.018;8.552;2023-08-08T05:49:37;9.63;;;5.47;;
74632;SDS011;63139;52.018;8.552;2023-08-08T05:52:06;6.15;;;5.00;;
74632;SDS011;63139;52.018;8.552;2023-08-08T05:54:33;8.07;;;4.82;;
74632;SDS011;63139;52.018;8.552;2023-08-08T05:57:02;9.50;;;5.63;;
74632;SDS011;63139;52.018;8.552;2023-08-08T05:59:30;8.27;;;4.70;;
74632;SDS011;63139;52.018;8.552;2023-08-08T06:01:59;9.80;;;4.97;;
74632;SDS011;63139;52.018;8.552;2023-08-08T06:04:27;13.70;;;4.85;;
74632;SDS011;63139;52.018;8.552;2023-08-08T06:06:55;7.82;;;4.43;;
74632;SDS011;63139;52.018;8.552;2023-08-08T06:09:23;5.45;;;4.30;;
74632;SDS011;63139;52.018;8.552;2023-08-08T06:11:50;8.38;;;4.55;;
74632;SDS011;63139;52.018;8.552;2023-08-08T06:14:18;6.97;;;3.55;;
74632;SDS011;63139;52.018;8.552;2023-08-08T06:16:46;5.40;;;4.10;;
74632;SDS011;63139;52.018;8.552;2023-08-08T06:19:15;7.57;;;4.47;;
74632;SDS011;63139;52.018;8.552;2023-08-08T06:21:43;7.40;;;4.00;;
74632;SDS011;63139;52.018;8.552;2023-08-08T06:24:10;6.35;;;3.83;;
74632;SDS011;63139;52.018;8.552;2023-08-08T06:26:38;7.22;;;3.97;;
74632;SDS011;63139;52.018;8.552;2023-08-08T06:29:06;10.25;;;5.35;;
74632;SDS011;63139;52.018;8.552;2023-08-08T06:31:34;5.95;;;4.03;;
74632;SDS011;63139;52.018;8.552;2023-08-08T06:34:02;5.97;;;3.95;;
74632;SDS011;63139;52.018;8.552;2023-08-08T06:36:31;9.35;;;4.90;;
74632;SDS011;63139;52.018;8.552;2023-08-08T06:38:59;7.13;;;4.70;;
74632;SDS011;63139;52.018;8.552;2023-08-08T06:41:26;7.30;;;4.30;;
74632;SDS011;63139;52.018;8.552;2023-08-08T06:43:54;6.70;;;4.50;;
74632;SDS011;63139;52.018;8.552;2023-08-08T06:46:22;6.40;;;4.50;;
74632;SDS011;63139;52.018;8.552;2023-08-08T06:48:51;9.68;;;4.93;;
74632;SDS011;63139;52.018;8.552;2023-08-08T06:51:23;10.20;;;6.00;;
74632;SDS011;63139;52.018;8.552;2023-08-08T06:53:52;9.25;;;5.50;;
74632;SDS011;63139;52.018;8.552;2023-08-08T06:56:20;8.98;;;5.60;;
74632;SDS011;63139;52.018;8.552;2023-08-08T06:58:48;11.95;;;6.60;;
74632;SDS011;63139;52.018;8.552;2023-08-08T07:01:15;8.82;;;6.07;;
74632;SDS011;63139;52.018;8.552;2023-08-08T07:03:43;7.97;;;6.53;;
74632;SDS011;63139;52.018;8.552;2023-08-08T07:06:11;10.18;;;6.82;;
74632;SDS011;63139;52.018;8.552;2023-08-08T07:08:39;12.77;;;7.60;;
74632;SDS011;63139;52.018;8.552;2023-08-08T07:11:08;9.82;;;7.38;;
74632;SDS011;63139;52.018;8.552;2023-08-08T07:13:37;13.55;;;7.72;;
74632;SDS011;63139;52.018;8.552;2023-08-08T07:16:04;11.38;;;8.13;;
74632;SDS011;63139;52.018;8.552;2023-08-08T07:18:32;9.63;;;7.70;;
74632;SDS011;63139;52.018;8.552;2023-08-08T07:21:01;10.65;;;7.50;;
74632;SDS011;63139;52.018;8.552;2023-08-08T07:23:29;11.30;;;7.22;;
74632;SDS011;63139;52.018;8.552;2023-08-08T07:25:56;11.27;;;8.13;;
74632;SDS011;63139;52.018;8.552;2023-08-08T07:28:26;13.25;;;8.80;;
74632;SDS011;63139;52.018;8.552;2023-08-08T07:30:53;10.50;;;8.05;;
74632;SDS011;63139;52.018;8.552;2023-08-08T07:33:21;12.18;;;8.68;;
74632;SDS011;63139;52.018;8.552;2023-08-08T07:35:49;10.57;;;8.85;;
74632;SDS011;63139;52.018;8.552;2023-08-08T07:38:16;11.63;;;8.48;;
74632;SDS011;63139;52.018;8.552;2023-08-08T07:40:44;17.58;;;11.00;;
74632;SDS011;63139;52.018;8.552;2023-08-08T07:43:14;16.30;;;11.35;;
74632;SDS011;63139;52.018;8.552;2023-08-08T07:45:44;11.45;;;9.27;;
74632;SDS011;63139;52.018;8.552;2023-08-08T07:48:11;12.85;;;9.20;;
74632;SDS011;63139;52.018;8.552;2023-08-08T07:50:39;14.73;;;10.43;;
74632;SDS011;63139;52.018;8.552;2023-08-08T07:53:07;13.15;;;11.20;;
74632;SDS011;63139;52.018;8.552;2023-08-08T07:55:35;14.93;;;10.40;;
74632;SDS011;63139;52.018;8.552;2023-08-08T07:58:03;13.98;;;9.82;;
74632;SDS011;63139;52.018;8.552;2023-08-08T08:00:31;14.48;;;10.48;;
74632;SDS011;63139;52.018;8.552;2023-08-08T08:03:00;13.73;;;10.60;;
74632;SDS011;63139;52.018;8.552;2023-08-08T08:05:28;13.57;;;9.05;;
74632;SDS011;63139;52.018;8.552;2023-08-08T08:07:56;15.75;;;9.70;;
74632;SDS011;63139;52.018;8.552;2023-08-08T08:10:24;15.48;;;11.70;;
74632;SDS011;63139;52.018;8.552;2023-08-08T08:12:51;12.18;;;9.52;;
74632;SDS011;63139;52.018;8.552;2023-08-08T08:15:24;13.70;;;9.80;;
74632;SDS011;63139;52.018;8.552;2023-08-08T08:17:52;12.38;;;9.25;;
74632;SDS011;63139;52.018;8.552;2023-08-08T08:20:21;20.58;;;12.27;;
74632;SDS011;63139;52.018;8.552;2023-08-08T08:22:49;15.65;;;11.95;;
74632;SDS011;63139;52.018;8.552;2023-08-08T08:25:17;15.43;;;10.90;;
74632;SDS011;63139;52.018;8.552;2023-08-08T08:27:45;20.73;;;13.07;;
74632;SDS011;63139;52.018;8.552;2023-08-08T08:30:13;16.50;;;11.27;;
74632;SDS011;63139;52.018;8.552;2023-08-08T08:32:43;12.75;;;10.82;;
74632;SDS011;63139;52.018;8.552;2023-08-08T08:35:11;13.20;;;9.98;;
74632;SDS011;63139;52.018;8.552;2023-08-08T08:37:40;23.92;;;12.02;;
74632;SDS011;63139;52.018;8.552;2023-08-08T08:40:08;16.85;;;10.95;;
74632;SDS011;63139;52.018;8.552;2023-08-08T08:42:37;16.67;;;10.00;;
74632;SDS011;63139;52.018;8.552;2023-08-08T08:45:06;16.67;;;9.90;;
74632;SDS011;63139;52.018;8.552;2023-08-08T08:47:37;13.77;;;8.45;;
74632;SDS011;63139;52.018;8.552;2023-08-08T08:50:08;16.98;;;9.20;;
74632;SDS011;63139;52.018;8.552;2023-08-08T08:52:36;10.35;;;8.93;;
74632;SDS011;63139;52.018;8.552;2023-08-08T08:55:06;12.30;;;9.32;;
74632;SDS011;63139;52.018;8.552;2023-08-08T08:57:35;11.43;;;8.63;;
74632;SDS011;63139;52.018;8.552;2023-08-08T09:00:04;16.15;;;10.63;;
74632;SDS011;63139;52.018;8.552;2023-08-08T09:02:33;10.75;;;8.85;;
74632;SDS011;63139;52.018;8.552;2023-08-08T09:05:01;13.65;;;8.30;;
74632;SDS011;63139;52.018;8.552;2023-08-08T09:07:31;11.40;;;7.93;;
74632;SDS011;63139;52.018;8.552;2023-08-08T09:10:00;14.90;;;9.23;;
74632;SDS011;63139;52.018;8.552;2023-08-08T09:12:29;15.73;;;8.38;;
74632;SDS011;63139;52.018;8.552;2023-08-08T09:14:58;14.93;;;9.38;;
74632;SDS011;63139;52.018;8.552;2023-08-08T09:17:26;13.07;;;8.70;;
74632;SDS011;63139;52.018;8.552;2023-08-08T09:20:13;12.13;;;8.55;;
74632;SDS011;63139;52.018;8.552;2023-08-08T09:22:41;12.02;;;8.85;;
74632;SDS011;63139;52.018;8.552;2023-08-08T09:25:09;12.75;;;8.05;;
74632;SDS011;63139;52.018;8.552;2023-08-08T09:27:38;14.25;;;8.55;;
74632;SDS011;63139;52.018;8.552;2023-08-08T09:30:08;10.80;;;7.95;;
74632;SDS011;63139;52.018;8.552;2023-08-08T09:32:37;14.20;;;8.25;;
74632;SDS011;63139;52.018;8.552;2023-08-08T09:35:06;11.85;;;8.70;;
74632;SDS011;63139;52.018;8.552;2023-08-08T09:37:36;9.77;;;7.18;;
74632;SDS011;63139;52.018;8.552;2023-08-08T09:40:05;11.45;;;7.03;;
74632;SDS011;63139;52.018;8.552;2023-08-08T09:42:35;9.80;;;5.65;;
74632;SDS011;63139;52.018;8.552;2023-08-08T09:45:05;5.85;;;4.55;;
74632;SDS011;63139;52.018;8.552;2023-08-08T09:47:35;7.35;;;4.32;;
74632;SDS011;63139;52.018;8.552;2023-08-08T09:50:05;9.35;;;4.07;;
74632;SDS011;63139;52.018;8.552;2023-08-08T09:52:34;5.43;;;3.60;;
74632;SDS011;63139;52.018;8.552;2023-08-08T09:55:05;6.70;;;3.78;;
74632;SDS011;63139;52.018;8.552;2023-08-08T09:57:34;7.40;;;3.70;;
74632;SDS011;63139;52.018;8.552;2023-08-08T10:00:02;4.75;;;3.20;;
74632;SDS011;63139;52.018;8.552;2023-08-08T10:02:36;5.47;;;3.15;;
74632;SDS011;63139;52.018;8.552;2023-08-08T10:05:04;4.82;;;3.45;;
74632;SDS011;63139;52.018;8.552;2023-08-08T10:07:32;6.95;;;3.15;;
74632;SDS011;63139;52.018;8.552;2023-08-08T10:10:00;8.13;;;3.42;;
74632;SDS011;63139;52.018;8.552;2023-08-08T10:12:29;4.72;;;2.92;;
74632;SDS011;63139;52.018;8.552;2023-08-08T10:14:58;5.57;;;2.88;;
74632;SDS011;63139;52.018;8.552;2023-08-08T10:17:27;4.60;;;2.80;;
74632;SDS011;63139;52.018;8.552;2023-08-08T10:20:03;5.30;;;2.78;;
74632;SDS011;63139;52.018;8.552;2023-08-08T10:22:36;4.07;;;2.33;;
74632;SDS011;63139;52.018;8.552;2023-08-08T10:25:05;6.90;;;2.55;;
74632;SDS011;63139;52.018;8.552;2023-08-08T10:27:34;3.92;;;2.30;;
74632;SDS011;63139;52.018;8.552;2023-08-08T10:30:04;7.03;;;2.40;;
74632;SDS011;63139;52.018;8.552;2023-08-08T10:32:40;5.03;;;2.30;;
74632;SDS011;63139;52.018;8.552;2023-08-08T10:35:10;3.90;;;2.20;;
74632;SDS011;63139;52.018;8.552;2023-08-08T10:37:39;5.45;;;2.67;;
74632;SDS011;63139;52.018;8.552;2023-08-08T10:40:07;4.70;;;2.03;;
74632;SDS011;63139;52.018;8.552;2023-08-08T10:42:41;7.82;;;2.53;;
74632;SDS011;63139;52.018;8.552;2023-08-08T10:45:10;6.20;;;2.20;;
74632;SDS011;63139;52.018;8.552;2023-08-08T10:47:41;2.35;;;1.70;;
74632;SDS011;63139;52.018;8.552;2023-08-08T10:50:10;4.53;;;1.65;;
74632;SDS011;63139;52.018;8.552;2023-08-08T10:52:49;4.43;;;1.70;;
74632;SDS011;63139;52.018;8.552;2023-08-08T10:55:18;4.78;;;1.60;;
74632;SDS011;63139;52.018;8.552;2023-08-08T10:57:57;3.00;;;1.50;;
74632;SDS011;63139;52.018;8.552;2023-08-08T11:00:27;4.07;;;2.00;;
74632;SDS011;63139;52.018;8.552;2023-08-08T11:02:58;3.65;;;1.60;;
74632;SDS011;63139;52.018;8.552;2023-08-08T11:05:28;4.05;;;1.55;;
74632;SDS011;63139;52.018;8.552;2023-08-08T11:07:57;7.88;;;1.50;;
74632;SDS011;63139;52.018;8.552;2023-08-08T11:10:25;3.10;;;1.60;;
74632;SDS011;63139;52.018;8.552;2023-08-08T11:12:57;3.08;;;1.50;;
74632;SDS011;63139;52.018;8.552;2023-08-08T11:15:26;3.97;;;1.48;;
74632;SDS011;63139;52.018;8.552;2023-08-08T11:17:55;5.88;;;1.75;;
74632;SDS011;63139;52.018;8.552;2023-08-08T11:20:28;3.80;;;1.50;;
74632;SDS011;63139;52.018;8.552;2023-08-08T11:22:57;2.67;;;1.83;;
74632;SDS011;63139;52.018;8.552;2023-08-08T11:25:26;4.93;;;1.83;;
74632;SDS011;63139;52.018;8.552;2023-08-08T11:27:54;3.60;;;1.40;;
74632;SDS011;63139;52.018;8.552;2023-08-08T11:30:24;5.13;;;1.85;;
74632;SDS011;63139;52.018;8.552;2023-08-08T11:32:55;4.22;;;1.83;;
74632;SDS011;63139;52.018;8.552;2023-08-08T11:35:27;3.65;;;1.50;;
74632;SDS011;63139;52.018;8.552;2023-08-08T11:37:56;3.10;;;1.67;;
74632;SDS011;63139;52.018;8.552;2023-08-08T11:40:25;4.70;;;1.60;;
74632;SDS011;63139;52.018;8.552;2023-08-08T11:42:55;2.63;;;1.35;;
74632;SDS011;63139;52.018;8.552;2023-08-08T11:45:24;3.00;;;1.30;;
74632;SDS011;63139;52.018;8.552;2023-08-08T11:47:52;2.75;;;1.30;;
74632;SDS011;63139;52.018;8.552;2023-08-08T11:50:21;3.25;;;1.50;;
74632;SDS011;63139;52.018;8.552;2023-08-08T11:52:52;2.78;;;1.48;;
74632;SDS011;63139;52.018;8.552;2023-08-08T11:55:21;2.72;;;1.52;;
74632;SDS011;63139;52.018;8.552;2023-08-08T11:57:54;3.13;;;1.67;;
74632;SDS011;63139;52.018;8.552;2023-08-08T12:00:27;4.50;;;1.35;;
74632;SDS011;63139;52.018;8.552;2023-08-08T12:02:56;2.17;;;1.10;;
74632;SDS011;63139;52.018;8.552;2023-08-08T12:05:25;3.08;;;1.70;;
74632;SDS011;63139;52.018;8.552;2023-08-08T12:07:54;3.05;;;1.33;;
74632;SDS011;63139;52.018;8.552;2023-08-08T12:10:22;2.80;;;1.35;;
74632;SDS011;63139;52.018;8.552;2023-08-08T12:12:52;3.28;;;1.25;;
74632;SDS011;63139;52.018;8.552;2023-08-08T12:15:23;3.38;;;1.50;;
74632;SDS011;63139;52.018;8.552;2023-08-08T12:17:51;3.38;;;1.10;;
74632;SDS011;63139;52.018;8.552;2023-08-08T12:20:19;3.20;;;1.23;;
74632;SDS011;63139;52.018;8.552;2023-08-08T12:22:47;2.63;;;1.40;;
74632;SDS011;63139;52.018;8.552;2023-08-08T12:25:16;3.88;;;1.30;;
74632;SDS011;63139;52.018;8.552;2023-08-08T12:27:44;4.05;;;1.40;;
74632;SDS011;63139;52.018;8.552;2023-08-08T12:30:14;1.95;;;1.10;;
74632;SDS011;63139;52.018;8.552;2023-08-08T12:32:42;2.67;;;1.30;;
74632;SDS011;63139;52.018;8.552;2023-08-08T12:35:10;1.38;;;1.00;;
74632;SDS011;63139;52.018;8.552;2023-08-08T12:37:38;2.20;;;1.25;;
74632;SDS011;63139;52.018;8.552;2023-08-08T12:40:06;2.15;;;1.17;;
74632;SDS011;63139;52.018;8.552;2023-08-08T12:42:37;2.03;;;0.80;;
74632;SDS011;63139;52.018;8.552;2023-08-08T12:45:05;1.70;;;0.93;;
74632;SDS011;63139;52.018;8.552;2023-08-08T12:47:33;1.83;;;1.02;;
74632;SDS011;63139;52.018;8.552;2023-08-08T12:50:03;4.10;;;1.38;;
74632;SDS011;63139;52.018;8.552;2023-08-08T12:52:31;1.08;;;1.00;;
74632;SDS011;63139;52.018;8.552;2023-08-08T12:54:59;3.50;;;1.00;;
74632;SDS011;63139;52.018;8.552;2023-08-08T12:57:27;2.05;;;1.17;;
74632;SDS011;63139;52.018;8.552;2023-08-08T12:59:57;2.45;;;1.23;;
74632;SDS011;63139;52.018;8.552;2023-08-08T13:02:24;4.28;;;1.30;;
74632;SDS011;63139;52.018;8.552;2023-08-08T13:04:52;2.20;;;1.35;;
74632;SDS011;63139;52.018;8.552;2023-08-08T13:07:20;1.42;;;1.08;;
74632;SDS011;63139;52.018;8.552;2023-08-08T13:09:48;2.03;;;1.10;;
74632;SDS011;63139;52.018;8.552;2023-08-08T13:12:16;2.00;;;1.20;;
74632;SDS011;63139;52.018;8.552;2023-08-08T13:14:43;4.50;;;1.30;;
74632;SDS011;63139;52.018;8.552;2023-08-08T13:17:12;1.60;;;1.10;;
74632;SDS011;63139;52.018;8.552;2023-08-08T13:19:40;1.42;;;1.10;;
74632;SDS011;63139;52.018;8.552;2023-08-08T13:22:08;1.70;;;1.00;;
74632;SDS011;63139;52.018;8.552;2023-08-08T13:24:36;2.17;;;1.20;;
74632;SDS011;63139;52.018;8.552;2023-08-08T13:27:04;3.22;;;1.10;;
74632;SDS011;63139;52.018;8.552;2023-08-08T13:29:32;2.30;;;1.10;;
74632;SDS011;63139;52.018;8.552;2023-08-08T13:32:00;1.83;;;1.00;;
74632;SDS011;63139;52.018;8.552;2023-08-08T13:34:29;1.20;;;1.10;;
74632;SDS011;63139;52.018;8.552;2023-08-08T13:36:57;2.63;;;1.10;;
74632;SDS011;63139;52.018;8.552;2023-08-08T13:39:25;2.00;;;1.05;;
74632;SDS011;63139;52.018;8.552;2023-08-08T13:41:53;1.83;;;1.10;;
74632;SDS011;63139;52.018;8.552;2023-08-08T13:44:20;2.42;;;1.20;;
74632;SDS011;63139;52.018;8.552;2023-08-08T13:46:48;3.45;;;1.30;;
74632;SDS011;63139;52.018;8.552;2023-08-08T13:49:17;2.78;;;1.15;;
74632;SDS011;63139;52.018;8.552;2023-08-08T13:51:46;1.25;;;1.10;;
74632;SDS011;63139;52.018;8.552;2023-08-08T13:54:16;6.00;;;1.27;;
74632;SDS011;63139;52.018;8.552;2023-08-08T13:56:44;2.63;;;1.33;;
74632;SDS011;63139;52.018;8.552;2023-08-08T13:59:12;2.45;;;1.40;;
74632;SDS011;63139;52.018;8.552;2023-08-08T14:01:40;3.78;;;1.25;;
74632;SDS011;63139;52.018;8.552;2023-08-08T14:04:08;3.28;;;1.40;;
74632;SDS011;63139;52.018;8.552;2023-08-08T14:06:36;1.50;;;1.23;;
74632;SDS011;63139;52.018;8.552;2023-08-08T14:09:05;2.35;;;1.40;;
74632;SDS011;63139;52.018;8.552;2023-08-08T14:11:36;4.18;;;1.60;;
74632;SDS011;63139;52.018;8.552;2023-08-08T14:14:04;3.15;;;1.27;;
74632;SDS011;63139;52.018;8.552;2023-08-08T14:16:32;1.33;;;1.20;;
74632;SDS011;63139;52.018;8.552;2023-08-08T14:18:59;1.48;;;1.20;;
74632;SDS011;63139;52.018;8.552;2023-08-08T14:21:27;2.90;;;1.27;;
74632;SDS011;63139;52.018;8.552;2023-08-08T14:23:55;3.60;;;1.25;;
74632;SDS011;63139;52.018;8.552;2023-08-08T14:26:24;3.72;;;1.25;;
74632;SDS011;63139;52.018;8.552;2023-08-08T14:28:52;2.40;;;1.20;;
74632;SDS011;63139;52.018;8.552;2023-08-08T14:31:20;2.17;;;1.17;;
74632;SDS011;63139;52.018;8.552;2023-08-08T14:33:48;2.50;;;1.10;;
74632;SDS011;63139;52.018;8.552;2023-08-08T14:36:15;2.67;;;1.10;;
74632;SDS011;63139;52.018;8.552;2023-08-08T14:38:45;2.08;;;1.10;;
74632;SDS011;63139;52.018;8.552;2023-08-08T14:41:13;1.67;;;1.20;;
74632;SDS011;63139;52.018;8.552;2023-08-08T14:43:42;3.58;;;1.00;;
74632;SDS011;63139;52.018;8.552;2023-08-08T14:46:10;2.58;;;1.15;;
74632;SDS011;63139;52.018;8.552;2023-08-08T14:48:38;2.58;;;1.15;;
74632;SDS011;63139;52.018;8.552;2023-08-08T14:51:05;3.75;;;1.10;;